createdAt,value
2023-05-22T00:00:52.804Z,19.40
2023-05-22T00:02:24.767Z,19.40
2023-05-22T00:03:57.153Z,19.40
2023-05-22T00:05:32.698Z,19.40
2023-05-22T00:07:04.810Z,19.30
2023-05-22T00:08:37.048Z,19.30
2023-05-22T00:10:09.421Z,19.30
2023-05-22T00:11:41.203Z,19.30
2023-05-22T00:13:12.985Z,19.30
2023-05-22T00:14:44.761Z,19.30
2023-05-22T00:16:16.652Z,19.30
2023-05-22T00:17:51.136Z,19.30
2023-05-22T00:19:23.104Z,19.30
2023-05-22T00:20:55.278Z,19.30
2023-05-22T00:22:28.288Z,19.30
2023-05-22T00:24:04.027Z,19.30
2023-05-22T00:25:36.439Z,19.30
2023-05-22T00:27:08.162Z,19.30
2023-05-22T00:28:39.945Z,19.30
2023-05-22T00:30:12.309Z,19.30
2023-05-22T00:31:44.170Z,19.30
2023-05-22T00:33:16.116Z,19.20
2023-05-22T00:34:47.931Z,19.20
2023-05-22T00:36:19.828Z,19.20
2023-05-22T00:37:52.921Z,19.30
2023-05-22T00:39:25.529Z,19.20
2023-05-22T00:40:57.677Z,19.20
2023-05-22T00:42:29.416Z,19.20
2023-05-22T00:44:02.618Z,19.20
2023-05-22T00:45:34.432Z,19.20
2023-05-22T00:47:06.260Z,19.20
2023-05-22T00:48:38.181Z,19.20
2023-05-22T00:50:11.589Z,19.20
2023-05-22T00:51:44.104Z,19.10
2023-05-22T00:53:16.791Z,19.10
2023-05-22T00:54:52.760Z,19.10
2023-05-22T00:56:26.920Z,19.10
2023-05-22T00:57:59.010Z,19.10
2023-05-22T00:59:31.732Z,19.10
2023-05-22T01:01:03.666Z,19.10
2023-05-22T01:02:37.127Z,19.10
2023-05-22T01:04:18.618Z,19.00
2023-05-22T01:05:50.432Z,19.00
2023-05-22T01:07:23.781Z,19.00
2023-05-22T01:08:58.230Z,19.00
2023-05-22T01:10:31.791Z,19.00
2023-05-22T01:12:24.268Z,19.00
2023-05-22T01:14:10.720Z,19.00
2023-05-22T01:16:09.125Z,19.00
2023-05-22T01:18:11.003Z,19.00
2023-05-22T01:20:07.284Z,19.00
2023-05-22T01:21:46.290Z,19.00
2023-05-22T01:23:33.633Z,19.00
2023-05-22T01:25:21.027Z,19.00
2023-05-22T01:27:25.936Z,19.00
2023-05-22T01:29:34.728Z,19.00
2023-05-22T01:31:11.198Z,19.00
2023-05-22T01:32:44.823Z,19.00
2023-05-22T01:34:20.419Z,19.00
2023-05-22T01:35:55.628Z,19.00
2023-05-22T01:37:27.926Z,19.00
2023-05-22T01:39:01.476Z,18.90
2023-05-22T01:40:34.290Z,18.90
2023-05-22T01:42:06.327Z,18.90
2023-05-22T01:43:39.580Z,18.90
2023-05-22T01:45:12.173Z,18.90
2023-05-22T01:46:43.953Z,18.90
2023-05-22T01:48:16.140Z,18.90
2023-05-22T01:49:48.111Z,18.90
2023-05-22T01:51:37.787Z,18.90
2023-05-22T01:53:19.824Z,18.90
2023-05-22T01:54:58.263Z,18.90
2023-05-22T01:56:41.413Z,18.90
2023-05-22T01:58:36.194Z,18.90
2023-05-22T02:00:13.911Z,18.90
2023-05-22T02:01:51.463Z,18.90
2023-05-22T02:03:29.880Z,18.90
2023-05-22T02:05:04.422Z,18.90
2023-05-22T02:06:37.912Z,18.90
2023-05-22T02:08:11.487Z,18.90
2023-05-22T02:09:46.881Z,18.90
2023-05-22T02:11:21.558Z,18.90
2023-05-22T02:12:54.367Z,18.90
2023-05-22T02:14:26.497Z,18.90
2023-05-22T02:16:00.296Z,18.90
2023-05-22T02:17:40.202Z,18.80
2023-05-22T02:19:15.210Z,18.80
2023-05-22T02:20:47.199Z,18.80
2023-05-22T02:22:19.054Z,18.80
2023-05-22T02:23:51.064Z,18.80
2023-05-22T02:25:23.333Z,18.80
2023-05-22T02:26:55.321Z,18.80
2023-05-22T02:28:27.396Z,18.80
2023-05-22T02:29:59.119Z,18.80
2023-05-22T02:31:30.982Z,18.70
2023-05-22T02:33:05.849Z,18.70
2023-05-22T02:34:37.936Z,18.70
2023-05-22T02:36:11.121Z,18.70
2023-05-22T02:37:43.077Z,18.70
2023-05-22T02:39:15.152Z,18.70
2023-05-22T02:40:47.416Z,18.70
2023-05-22T02:42:19.634Z,18.70
2023-05-22T02:43:51.461Z,18.70
2023-05-22T02:45:23.443Z,18.70
2023-05-22T02:46:56.085Z,18.60
2023-05-22T02:48:29.176Z,18.60
2023-05-22T02:50:01.047Z,18.60
2023-05-22T02:51:32.791Z,18.60
2023-05-22T02:53:04.536Z,18.60
2023-05-22T02:54:36.300Z,18.60
2023-05-22T02:56:10.548Z,18.60
2023-05-22T02:57:43.254Z,18.60
2023-05-22T02:59:15.106Z,18.50
2023-05-22T03:00:46.965Z,18.60
2023-05-22T03:02:19.792Z,18.50
2023-05-22T03:03:54.959Z,18.50
2023-05-22T03:05:26.985Z,18.50
2023-05-22T03:06:59.047Z,18.50
2023-05-22T03:08:31.646Z,18.50
2023-05-22T03:10:03.675Z,18.50
2023-05-22T03:11:35.444Z,18.50
2023-05-22T03:13:07.260Z,18.50
2023-05-22T03:14:39.111Z,18.40
2023-05-22T03:16:11.006Z,18.40
2023-05-22T03:17:47.776Z,18.40
2023-05-22T03:19:20.437Z,18.40
2023-05-22T03:20:52.404Z,18.40
2023-05-22T03:22:24.198Z,18.40
2023-05-22T03:23:56.053Z,18.40
2023-05-22T03:25:28.025Z,18.40
2023-05-22T03:27:00.646Z,18.40
2023-05-22T03:28:40.977Z,18.40
2023-05-22T03:30:13.338Z,18.30
2023-05-22T03:31:49.304Z,18.30
2023-05-22T03:33:21.285Z,18.30
2023-05-22T03:34:54.133Z,18.30
2023-05-22T03:36:26.047Z,18.30
2023-05-22T03:37:57.928Z,18.30
2023-05-22T03:39:29.697Z,18.30
2023-05-22T03:41:06.036Z,18.30
2023-05-22T03:42:37.995Z,18.30
2023-05-22T03:44:09.932Z,18.30
2023-05-22T03:45:41.668Z,18.30
2023-05-22T03:47:16.486Z,18.20
2023-05-22T03:48:48.266Z,18.30
2023-05-22T03:50:20.126Z,18.20
2023-05-22T03:51:51.991Z,18.20
2023-05-22T03:53:23.984Z,18.20
2023-05-22T03:54:55.775Z,18.30
2023-05-22T03:56:27.514Z,18.20
2023-05-22T03:57:59.252Z,18.20
2023-05-22T03:59:31.067Z,18.20
2023-05-22T04:01:03.118Z,18.20
2023-05-22T04:02:35.674Z,18.20
2023-05-22T04:04:09.479Z,18.20
2023-05-22T04:05:41.984Z,18.20
2023-05-22T04:07:18.215Z,18.10
2023-05-22T04:08:49.932Z,18.10
2023-05-22T04:10:23.503Z,18.10
2023-05-22T04:11:55.914Z,18.10
2023-05-22T04:13:27.773Z,18.10
2023-05-22T04:14:59.627Z,18.10
2023-05-22T04:16:31.994Z,18.20
2023-05-22T04:18:03.975Z,18.10
2023-05-22T04:19:36.224Z,18.10
2023-05-22T04:21:09.652Z,18.10
2023-05-22T04:22:41.700Z,18.10
2023-05-22T04:24:14.609Z,18.10
2023-05-22T04:25:48.025Z,18.10
2023-05-22T04:27:22.486Z,18.10
2023-05-22T04:28:54.476Z,18.10
2023-05-22T04:30:26.560Z,18.10
2023-05-22T04:32:00.177Z,18.00
2023-05-22T04:33:34.277Z,18.10
2023-05-22T04:35:06.314Z,18.10
2023-05-22T04:36:38.818Z,18.10
2023-05-22T04:38:11.779Z,18.00
2023-05-22T04:39:44.204Z,18.00
2023-05-22T04:41:18.370Z,18.00
2023-05-22T04:42:54.159Z,18.10
2023-05-22T04:44:26.007Z,18.00
2023-05-22T04:45:57.766Z,18.00
2023-05-22T04:47:31.514Z,18.00
2023-05-22T04:49:04.566Z,18.00
2023-05-22T04:50:39.568Z,18.00
2023-05-22T04:52:12.074Z,18.00
2023-05-22T04:53:43.900Z,18.00
2023-05-22T04:55:16.744Z,18.00
2023-05-22T04:56:48.442Z,18.00
2023-05-22T04:58:20.596Z,18.00
2023-05-22T04:59:53.511Z,18.00
2023-05-22T05:01:28.346Z,18.00
2023-05-22T05:03:01.519Z,18.00
2023-05-22T05:04:34.273Z,18.00
2023-05-22T05:06:08.243Z,18.00
2023-05-22T05:07:40.297Z,17.90
2023-05-22T05:09:12.695Z,18.00
2023-05-22T05:10:44.484Z,17.90
2023-05-22T05:12:17.081Z,17.90
2023-05-22T05:13:48.791Z,17.90
2023-05-22T05:15:22.666Z,17.90
2023-05-22T05:16:54.844Z,17.90
2023-05-22T05:18:28.048Z,17.90
2023-05-22T05:20:00.299Z,17.90
2023-05-22T05:21:32.078Z,17.90
2023-05-22T05:23:05.673Z,17.90
2023-05-22T05:24:37.432Z,17.90
2023-05-22T05:26:09.413Z,17.90
2023-05-22T05:27:41.327Z,17.90
2023-05-22T05:29:14.129Z,17.90
2023-05-22T05:30:52.996Z,17.90
2023-05-22T05:32:47.488Z,17.90
2023-05-22T05:34:31.322Z,17.90
2023-05-22T05:36:07.509Z,17.90
2023-05-22T05:37:41.592Z,17.90
2023-05-22T05:39:13.555Z,17.90
2023-05-22T05:40:46.049Z,17.90
2023-05-22T05:42:18.098Z,17.90
2023-05-22T05:43:53.846Z,17.90
2023-05-22T05:45:26.229Z,17.90
2023-05-22T05:46:58.504Z,17.90
2023-05-22T05:48:31.474Z,17.90
2023-05-22T05:50:04.314Z,17.90
2023-05-22T05:51:38.669Z,17.90
2023-05-22T05:53:11.568Z,17.90
2023-05-22T05:54:47.481Z,17.90
2023-05-22T05:56:21.539Z,17.90
2023-05-22T05:57:54.420Z,17.90
2023-05-22T05:59:33.244Z,17.90
2023-05-22T06:01:26.128Z,17.90
2023-05-22T06:02:59.390Z,17.90
2023-05-22T06:04:51.448Z,17.90
2023-05-22T06:06:26.141Z,17.90
2023-05-22T06:08:10.187Z,17.90
2023-05-22T06:09:42.185Z,17.90
2023-05-22T06:11:13.909Z,17.90
2023-05-22T06:12:55.706Z,17.90
2023-05-22T06:14:27.492Z,17.90
2023-05-22T06:16:01.821Z,17.90
2023-05-22T06:17:37.393Z,17.90
2023-05-22T06:19:09.325Z,17.90
2023-05-22T06:20:41.584Z,17.90
2023-05-22T06:22:13.580Z,17.90
2023-05-22T06:23:48.560Z,17.90
2023-05-22T06:25:20.890Z,17.90
2023-05-22T06:26:53.792Z,17.90
2023-05-22T06:28:25.727Z,17.90
2023-05-22T06:29:57.857Z,17.90
2023-05-22T06:31:35.378Z,17.90
2023-05-22T06:33:08.858Z,17.90
2023-05-22T06:34:40.848Z,17.90
2023-05-22T06:36:13.598Z,17.90
2023-05-22T06:37:45.408Z,17.90
2023-05-22T06:39:18.407Z,17.90
2023-05-22T06:41:16.088Z,17.90
2023-05-22T06:42:47.981Z,17.90
2023-05-22T06:44:44.028Z,17.90
2023-05-22T06:46:16.278Z,17.90
2023-05-22T06:47:56.425Z,17.90
2023-05-22T06:49:28.302Z,17.90
2023-05-22T06:51:00.922Z,17.90
2023-05-22T06:52:33.731Z,18.00
2023-05-22T06:54:08.030Z,18.00
2023-05-22T06:55:41.910Z,18.00
2023-05-22T06:57:18.738Z,18.00
2023-05-22T06:58:50.741Z,18.00
2023-05-22T07:00:24.154Z,18.10
2023-05-22T07:02:05.744Z,18.00
2023-05-22T07:03:58.036Z,18.00
2023-05-22T07:05:41.684Z,18.00
2023-05-22T07:07:13.464Z,18.00
2023-05-22T07:08:45.213Z,18.00
2023-05-22T07:10:17.008Z,18.00
2023-05-22T07:11:48.999Z,18.10
2023-05-22T07:13:21.734Z,18.10
2023-05-22T07:14:54.244Z,18.10
2023-05-22T07:16:29.856Z,18.10
2023-05-22T07:18:01.852Z,18.10
2023-05-22T07:19:35.606Z,18.10
2023-05-22T07:21:09.221Z,18.10
2023-05-22T07:22:40.955Z,18.10
2023-05-22T07:24:12.707Z,18.20
2023-05-22T07:25:46.261Z,18.20
2023-05-22T07:27:20.228Z,18.20
2023-05-22T07:28:54.008Z,18.20
2023-05-22T07:30:25.768Z,18.20
2023-05-22T07:31:57.696Z,18.10
2023-05-22T07:33:31.051Z,18.20
2023-05-22T07:35:03.031Z,18.20
2023-05-22T07:36:35.565Z,18.20
2023-05-22T07:38:08.103Z,18.20
2023-05-22T07:39:40.784Z,18.10
2023-05-22T07:41:12.954Z,18.10
2023-05-22T07:42:44.729Z,18.10
2023-05-22T07:44:18.178Z,18.10
2023-05-22T07:45:53.958Z,18.10
2023-05-22T07:47:29.143Z,18.10
2023-05-22T07:49:01.351Z,18.10
2023-05-22T07:50:33.571Z,18.10
2023-05-22T07:52:05.781Z,18.10
2023-05-22T07:53:37.638Z,18.00
2023-05-22T07:55:10.321Z,18.10
2023-05-22T07:56:45.640Z,18.10
2023-05-22T07:58:18.034Z,18.10
2023-05-22T07:59:51.213Z,18.00
2023-05-22T08:01:24.086Z,18.00
2023-05-22T08:02:56.498Z,18.00
2023-05-22T08:04:30.114Z,18.00
2023-05-22T08:06:03.551Z,18.00
2023-05-22T08:07:36.205Z,18.00
2023-05-22T08:09:08.403Z,18.00
2023-05-22T08:12:15.147Z,18.00
2023-05-22T08:13:47.312Z,18.00
2023-05-22T08:15:19.241Z,18.00
2023-05-22T08:16:51.150Z,18.00
2023-05-22T08:18:22.962Z,18.00
2023-05-22T08:19:54.761Z,17.90
2023-05-22T08:21:26.636Z,17.90
2023-05-22T08:22:59.175Z,17.90
2023-05-22T08:24:31.332Z,17.90
2023-05-22T08:26:03.281Z,17.90
2023-05-22T08:27:35.108Z,17.90
2023-05-22T08:29:07.003Z,17.90
2023-05-22T08:30:38.969Z,17.90
2023-05-22T08:32:10.817Z,17.90
2023-05-22T08:33:42.603Z,17.90
2023-05-22T08:35:14.479Z,17.90
2023-05-22T08:36:46.305Z,17.90
2023-05-22T08:38:18.192Z,17.90
2023-05-22T08:39:49.914Z,17.90
2023-05-22T08:41:21.958Z,17.90
2023-05-22T08:42:54.915Z,17.90
2023-05-22T08:44:26.796Z,17.90
2023-05-22T08:46:08.540Z,17.90
2023-05-22T08:47:44.023Z,17.90
2023-05-22T08:49:17.121Z,17.90
2023-05-22T08:50:57.474Z,17.90
2023-05-22T08:52:47.946Z,17.90
2023-05-22T08:54:23.069Z,17.90
2023-05-22T08:55:55.296Z,17.90
2023-05-22T08:57:27.125Z,17.90
2023-05-22T08:59:00.094Z,17.90
2023-05-22T09:00:32.544Z,17.90
2023-05-22T09:02:06.776Z,17.90
2023-05-22T09:03:39.209Z,17.90
2023-05-22T09:05:12.218Z,17.90
2023-05-22T09:06:47.298Z,17.90
2023-05-22T09:08:20.871Z,17.90
2023-05-22T09:09:53.129Z,18.00
2023-05-22T09:11:26.125Z,18.00
2023-05-22T09:13:09.222Z,18.00
2023-05-22T09:14:44.552Z,18.00
2023-05-22T09:16:16.295Z,18.00
2023-05-22T09:17:48.019Z,18.00
2023-05-22T09:19:19.899Z,18.00
2023-05-22T09:20:51.815Z,18.00
2023-05-22T09:22:24.480Z,18.00
2023-05-22T09:24:01.115Z,18.00
2023-05-22T09:25:32.974Z,18.00
2023-05-22T09:27:07.021Z,18.00
2023-05-22T09:28:38.734Z,18.10
2023-05-22T09:30:10.969Z,18.10
2023-05-22T09:31:44.015Z,18.10
2023-05-22T09:33:18.069Z,18.10
2023-05-22T09:34:50.582Z,18.10
2023-05-22T09:36:22.940Z,18.10
2023-05-22T09:37:56.042Z,18.10
2023-05-22T09:39:43.220Z,18.20
2023-05-22T09:41:22.276Z,18.10
2023-05-22T09:42:54.033Z,18.10
2023-05-22T09:44:26.920Z,18.10
2023-05-22T09:46:02.349Z,18.20
2023-05-22T09:47:35.711Z,18.20
2023-05-22T09:49:07.497Z,18.20
2023-05-22T09:50:42.783Z,18.20
2023-05-22T09:52:16.404Z,18.20
2023-05-22T09:53:49.881Z,18.20
2023-05-22T09:55:26.591Z,18.20
2023-05-22T09:57:00.607Z,18.30
2023-05-22T09:58:35.579Z,18.30
2023-05-22T10:00:11.796Z,18.30
2023-05-22T10:01:45.593Z,18.30
2023-05-22T10:03:22.736Z,18.30
2023-05-22T10:04:54.904Z,18.40
2023-05-22T10:06:28.676Z,18.40
2023-05-22T10:08:10.443Z,18.40
2023-05-22T10:09:43.263Z,18.40
2023-05-22T10:11:15.700Z,18.40
2023-05-22T10:12:57.504Z,18.40
2023-05-22T10:14:30.921Z,18.50
2023-05-22T10:16:04.557Z,18.50
2023-05-22T10:17:37.967Z,18.50
2023-05-22T10:19:11.569Z,18.50
2023-05-22T10:20:44.821Z,18.60
2023-05-22T10:22:20.767Z,18.60
2023-05-22T10:23:53.376Z,18.60
2023-05-22T10:25:26.025Z,18.60
2023-05-22T10:26:59.469Z,18.60
2023-05-22T10:28:41.866Z,18.70
2023-05-22T10:30:37.711Z,18.70
2023-05-22T10:32:41.651Z,18.80
2023-05-22T10:34:48.994Z,18.80
2023-05-22T10:36:34.935Z,18.90
2023-05-22T10:38:25.189Z,18.80
2023-05-22T10:40:05.243Z,18.90
2023-05-22T10:41:37.090Z,18.90
2023-05-22T10:43:09.299Z,19.00
2023-05-22T10:44:41.630Z,19.00
2023-05-22T10:46:13.545Z,19.00
2023-05-22T10:47:45.443Z,19.10
2023-05-22T10:49:24.204Z,19.10
2023-05-22T10:50:57.212Z,19.10
2023-05-22T10:52:29.958Z,19.10
2023-05-22T10:54:02.496Z,19.20
2023-05-22T10:55:56.669Z,19.20
2023-05-22T10:57:35.770Z,19.20
2023-05-22T10:59:10.519Z,19.20
2023-05-22T11:00:42.472Z,19.30
2023-05-22T11:02:22.391Z,19.30
2023-05-22T11:03:59.377Z,19.30
2023-05-22T11:05:31.259Z,19.40
2023-05-22T11:07:05.337Z,19.40
2023-05-22T11:08:38.390Z,19.40
2023-05-22T11:10:10.371Z,19.50
2023-05-22T11:11:42.122Z,19.50
2023-05-22T11:13:14.134Z,19.50
2023-05-22T11:14:59.660Z,19.60
2023-05-22T11:16:34.821Z,19.60
2023-05-22T11:18:06.749Z,19.60
2023-05-22T11:19:41.398Z,19.60
2023-05-22T11:21:13.690Z,19.70
2023-05-22T11:22:57.987Z,19.70
2023-05-22T11:24:36.769Z,19.70
2023-05-22T11:26:22.510Z,19.70
2023-05-22T11:27:56.260Z,19.80
2023-05-22T11:29:29.277Z,19.80
2023-05-22T11:31:01.942Z,19.80
2023-05-22T11:32:36.302Z,19.80
2023-05-22T11:34:08.685Z,19.90
2023-05-22T11:35:41.404Z,19.90
2023-05-22T11:37:13.427Z,19.90
2023-05-22T11:38:45.232Z,19.90
2023-05-22T11:40:19.370Z,20.00
2023-05-22T11:41:51.192Z,20.00
2023-05-22T11:43:33.073Z,20.00
2023-05-22T11:45:05.743Z,20.00
2023-05-22T11:46:39.709Z,20.10
2023-05-22T11:48:13.924Z,20.10
2023-05-22T11:49:47.205Z,20.10
2023-05-22T11:51:22.740Z,20.20
2023-05-22T11:52:56.218Z,20.20
2023-05-22T11:54:32.232Z,20.20
2023-05-22T11:56:05.652Z,20.20
2023-05-22T11:57:38.217Z,20.20
2023-05-22T11:59:12.618Z,20.20
2023-05-22T12:00:44.433Z,20.30
2023-05-22T12:02:16.937Z,20.30
2023-05-22T12:03:48.812Z,20.30
2023-05-22T12:05:21.682Z,20.30
2023-05-22T12:06:54.548Z,20.30
2023-05-22T12:08:26.689Z,20.30
2023-05-22T12:09:58.845Z,20.30
2023-05-22T12:11:35.081Z,20.40
2023-05-22T12:13:07.392Z,20.40
2023-05-22T12:14:39.189Z,20.40
2023-05-22T12:16:23.654Z,20.40
2023-05-22T12:17:56.369Z,20.40
2023-05-22T12:19:28.284Z,20.40
2023-05-22T12:21:00.043Z,20.50
2023-05-22T12:22:31.868Z,20.50
2023-05-22T12:24:04.966Z,20.50
2023-05-22T12:25:39.741Z,20.50
2023-05-22T12:27:12.337Z,20.50
2023-05-22T12:28:44.536Z,20.50
2023-05-22T12:30:16.969Z,20.60
2023-05-22T12:31:48.834Z,20.60
2023-05-22T12:33:25.174Z,20.60
2023-05-22T12:34:58.775Z,20.60
2023-05-22T12:36:44.220Z,20.60
2023-05-22T12:38:16.031Z,20.70
2023-05-22T12:39:55.602Z,20.70
2023-05-22T12:41:27.329Z,20.70
2023-05-22T12:42:59.227Z,20.70
2023-05-22T12:44:30.988Z,20.80
2023-05-22T12:46:03.151Z,20.80
2023-05-22T12:47:34.956Z,20.80
2023-05-22T12:49:06.869Z,20.80
2023-05-22T12:50:38.893Z,20.80
2023-05-22T12:52:10.787Z,20.80
2023-05-22T12:53:42.499Z,20.80
2023-05-22T12:55:14.420Z,20.90
2023-05-22T12:56:46.112Z,20.90
2023-05-22T12:58:17.836Z,20.90
2023-05-22T12:59:49.534Z,20.90
2023-05-22T13:01:22.478Z,20.90
2023-05-22T13:02:54.578Z,20.90
2023-05-22T13:04:26.498Z,21.00
2023-05-22T13:06:01.127Z,21.00
2023-05-22T13:07:33.334Z,21.00
2023-05-22T13:09:05.154Z,21.00
2023-05-22T13:10:38.362Z,21.00
2023-05-22T13:12:11.204Z,21.00
2023-05-22T13:13:43.055Z,21.00
2023-05-22T13:15:15.956Z,21.10
2023-05-22T13:16:47.671Z,21.10
2023-05-22T13:18:19.480Z,21.10
2023-05-22T13:19:51.469Z,21.10
2023-05-22T13:21:25.203Z,21.10
2023-05-22T13:22:58.263Z,21.10
2023-05-22T13:24:30.142Z,21.10
2023-05-22T13:26:02.976Z,21.20
2023-05-22T13:27:34.696Z,21.20
2023-05-22T13:29:06.514Z,21.20
2023-05-22T13:30:38.370Z,21.20
2023-05-22T13:32:13.070Z,21.20
2023-05-22T13:33:44.831Z,21.20
2023-05-22T13:35:16.702Z,21.20
2023-05-22T13:36:48.526Z,21.20
2023-05-22T13:38:20.806Z,21.30
2023-05-22T13:39:54.737Z,21.30
2023-05-22T13:41:26.711Z,21.30
2023-05-22T13:42:58.659Z,21.30
2023-05-22T13:44:30.443Z,21.30
2023-05-22T13:46:02.142Z,21.30
2023-05-22T13:47:34.668Z,21.30
2023-05-22T13:49:06.438Z,21.30
2023-05-22T13:50:38.300Z,21.40
2023-05-22T13:52:10.051Z,21.30
2023-05-22T13:53:41.806Z,21.40
2023-05-22T13:55:13.637Z,21.40
2023-05-22T13:56:45.694Z,21.40
2023-05-22T13:58:17.490Z,21.40
2023-05-22T13:59:49.318Z,21.40
2023-05-22T14:01:21.126Z,21.40
2023-05-22T14:02:52.972Z,21.40
2023-05-22T14:04:24.956Z,21.40
2023-05-22T14:05:56.718Z,21.40
2023-05-22T14:07:31.214Z,21.40
2023-05-22T14:09:05.965Z,21.40
2023-05-22T14:10:38.551Z,21.50
2023-05-22T14:12:10.312Z,21.50
2023-05-22T14:13:42.578Z,21.50
2023-05-22T14:15:16.031Z,21.50
2023-05-22T14:16:47.844Z,21.50
2023-05-22T14:18:19.861Z,21.50
2023-05-22T14:19:51.776Z,21.50
2023-05-22T14:21:23.516Z,21.50
2023-05-22T14:22:58.201Z,21.60
2023-05-22T14:24:30.555Z,21.60
2023-05-22T14:26:02.296Z,21.60
2023-05-22T14:27:34.042Z,21.60
2023-05-22T14:29:05.993Z,21.60
2023-05-22T14:30:38.717Z,21.60
2023-05-22T14:32:10.483Z,21.60
2023-05-22T14:33:42.433Z,21.60
2023-05-22T14:35:14.153Z,21.60
2023-05-22T14:36:46.352Z,21.60
2023-05-22T14:38:18.260Z,21.60
2023-05-22T14:39:50.049Z,21.60
2023-05-22T14:41:21.906Z,21.70
2023-05-22T14:42:54.479Z,21.70
2023-05-22T14:44:26.368Z,21.70
2023-05-22T14:45:59.397Z,21.70
2023-05-22T14:47:31.763Z,21.70
2023-05-22T14:49:03.827Z,21.70
2023-05-22T14:50:35.856Z,21.70
2023-05-22T14:52:09.792Z,21.70
2023-05-22T14:53:41.616Z,21.70
2023-05-22T14:55:13.403Z,21.70
2023-05-22T14:56:48.874Z,21.70
2023-05-22T14:58:21.655Z,21.70
2023-05-22T14:59:53.481Z,21.70
2023-05-22T15:01:25.245Z,21.70
2023-05-22T15:02:57.869Z,21.70
2023-05-22T15:04:35.283Z,21.70
2023-05-22T15:06:07.195Z,21.70
2023-05-22T15:07:44.639Z,21.70
2023-05-22T15:09:17.394Z,21.70
2023-05-22T15:10:49.421Z,21.70
2023-05-22T15:12:22.596Z,21.80
2023-05-22T15:13:54.494Z,21.70
2023-05-22T15:15:26.241Z,21.70
2023-05-22T15:17:01.085Z,21.80
2023-05-22T15:18:32.816Z,21.80
2023-05-22T15:20:09.110Z,21.80
2023-05-22T15:21:42.091Z,21.70
2023-05-22T15:23:13.885Z,21.80
2023-05-22T15:24:47.567Z,21.80
2023-05-22T15:26:19.333Z,21.80
2023-05-22T15:27:51.412Z,21.80
2023-05-22T15:29:23.126Z,21.80
2023-05-22T15:30:54.823Z,21.80
2023-05-22T15:32:26.661Z,21.80
2023-05-22T15:33:58.417Z,21.80
2023-05-22T15:35:33.094Z,21.80
2023-05-22T15:37:04.911Z,21.80
2023-05-22T15:38:36.635Z,21.80
2023-05-22T15:40:11.062Z,21.80
2023-05-22T15:41:48.817Z,21.80
2023-05-22T15:43:27.126Z,21.80
2023-05-22T15:45:00.174Z,21.80
2023-05-22T15:46:32.040Z,21.80
2023-05-22T15:48:05.288Z,21.80
2023-05-22T15:49:37.081Z,21.80
2023-05-22T15:51:09.621Z,21.80
2023-05-22T15:52:41.403Z,21.80
2023-05-22T15:54:13.160Z,21.80
2023-05-22T15:55:44.897Z,21.80
2023-05-22T15:57:16.745Z,21.80
2023-05-22T15:58:48.473Z,21.80
2023-05-22T16:00:21.425Z,21.80
2023-05-22T16:01:53.242Z,21.80
2023-05-22T16:03:25.155Z,21.90
2023-05-22T16:04:56.912Z,21.90
2023-05-22T16:06:28.696Z,21.80
2023-05-22T16:08:00.529Z,21.80
2023-05-22T16:09:32.836Z,21.80
2023-05-22T16:11:04.772Z,21.80
2023-05-22T16:12:38.976Z,21.90
2023-05-22T16:14:10.693Z,21.90
2023-05-22T16:15:43.680Z,21.90
2023-05-22T16:17:15.763Z,21.80
2023-05-22T16:18:47.479Z,21.90
2023-05-22T16:20:20.310Z,21.80
2023-05-22T16:21:53.623Z,21.90
2023-05-22T16:23:25.470Z,21.80
2023-05-22T16:24:57.158Z,21.90
2023-05-22T16:26:28.847Z,21.90
2023-05-22T16:28:00.665Z,21.90
2023-05-22T16:29:32.692Z,21.90
2023-05-22T16:31:06.057Z,21.90
2023-05-22T16:32:38.364Z,21.80
2023-05-22T16:34:10.160Z,21.90
2023-05-22T16:35:46.848Z,21.80
2023-05-22T16:37:18.636Z,21.80
2023-05-22T16:38:50.310Z,21.80
2023-05-22T16:40:22.058Z,21.80
2023-05-22T16:41:54.114Z,21.80
2023-05-22T16:43:25.972Z,21.80
2023-05-22T16:44:57.672Z,21.80
2023-05-22T16:46:29.508Z,21.80
2023-05-22T16:48:01.564Z,21.70
2023-05-22T16:49:33.428Z,21.70
2023-05-22T16:51:05.270Z,21.70
2023-05-22T16:52:37.029Z,21.70
2023-05-22T16:54:08.762Z,21.70
2023-05-22T16:55:40.963Z,21.60
2023-05-22T16:57:12.876Z,21.60
2023-05-22T16:58:45.097Z,21.60
2023-05-22T17:00:17.325Z,21.60
2023-05-22T17:01:49.214Z,21.60
2023-05-22T17:03:21.270Z,21.60
2023-05-22T17:04:54.370Z,21.50
2023-05-22T17:06:27.576Z,21.50
2023-05-22T17:07:59.293Z,21.60
2023-05-22T17:09:31.530Z,21.50
2023-05-22T17:11:03.293Z,21.50
2023-05-22T17:12:34.991Z,21.50
2023-05-22T17:14:06.725Z,21.50
2023-05-22T17:15:38.590Z,21.40
2023-05-22T17:17:10.421Z,21.40
2023-05-22T17:18:42.213Z,21.40
2023-05-22T17:20:13.994Z,21.40
2023-05-22T17:21:46.019Z,21.40
2023-05-22T17:23:18.261Z,21.40
2023-05-22T17:24:50.491Z,21.40
2023-05-22T17:26:22.399Z,21.40
2023-05-22T17:27:54.102Z,21.40
2023-05-22T17:29:27.951Z,21.40
2023-05-22T17:31:00.540Z,21.40
2023-05-22T17:32:32.512Z,21.40
2023-05-22T17:34:04.626Z,21.40
2023-05-22T17:35:36.409Z,21.40
2023-05-22T17:37:08.146Z,21.40
2023-05-22T17:38:39.869Z,21.40
2023-05-22T17:40:11.684Z,21.40
2023-05-22T17:41:43.449Z,21.40
2023-05-22T17:43:16.505Z,21.30
2023-05-22T17:44:48.238Z,21.40
2023-05-22T17:46:19.984Z,21.40
2023-05-22T17:47:51.909Z,21.40
2023-05-22T17:49:23.803Z,21.30
2023-05-22T17:50:55.951Z,21.30
2023-05-22T17:52:27.672Z,21.30
2023-05-22T17:53:59.460Z,21.30
2023-05-22T17:55:31.327Z,21.30
2023-05-22T17:57:04.066Z,21.30
2023-05-22T17:58:35.946Z,21.30
2023-05-22T18:00:09.961Z,21.30
2023-05-22T18:01:44.447Z,21.30
2023-05-22T18:03:21.247Z,21.30
2023-05-22T18:04:55.590Z,21.30
2023-05-22T18:06:27.767Z,21.30
2023-05-22T18:08:00.502Z,21.20
2023-05-22T18:09:32.761Z,21.20
2023-05-22T18:11:22.541Z,21.20
2023-05-22T18:12:57.348Z,21.20
2023-05-22T18:14:29.550Z,21.20
2023-05-22T18:16:02.931Z,21.20
2023-05-22T18:17:39.502Z,21.20
2023-05-22T18:19:11.591Z,21.20
2023-05-22T18:20:44.193Z,21.10
2023-05-22T18:22:16.121Z,21.10
2023-05-22T18:23:47.906Z,21.10
2023-05-22T18:25:19.850Z,21.10
2023-05-22T18:26:51.712Z,21.00
2023-05-22T18:28:27.373Z,21.00
2023-05-22T18:29:59.409Z,21.00
2023-05-22T18:31:31.310Z,21.00
2023-05-22T18:33:03.791Z,20.90
2023-05-22T18:34:37.668Z,20.90
2023-05-22T18:36:09.689Z,20.90
2023-05-22T18:37:42.072Z,20.90
2023-05-22T18:39:14.840Z,20.90
2023-05-22T18:40:47.198Z,20.90
2023-05-22T18:42:19.152Z,20.80
2023-05-22T18:43:53.082Z,20.80
2023-05-22T18:45:25.125Z,20.80
2023-05-22T18:46:57.218Z,20.80
2023-05-22T18:48:30.904Z,20.80
2023-05-22T18:50:04.041Z,20.80
2023-05-22T18:51:37.131Z,20.80
2023-05-22T18:53:10.105Z,20.70
2023-05-22T18:54:42.057Z,20.70
2023-05-22T18:56:14.001Z,20.70
2023-05-22T18:57:45.891Z,20.70
2023-05-22T18:59:18.121Z,20.70
2023-05-22T19:00:52.048Z,20.70
2023-05-22T19:02:24.157Z,20.70
2023-05-22T19:03:56.144Z,20.60
2023-05-22T19:05:28.343Z,20.60
2023-05-22T19:07:00.246Z,20.60
2023-05-22T19:08:33.689Z,20.60
2023-05-22T19:10:08.085Z,20.60
2023-05-22T19:11:40.231Z,20.60
2023-05-22T19:13:12.158Z,20.60
2023-05-22T19:14:44.161Z,20.60
2023-05-22T19:16:16.302Z,20.50
2023-05-22T19:17:48.494Z,20.50
2023-05-22T19:19:20.507Z,20.50
2023-05-22T19:20:52.400Z,20.50
2023-05-22T19:22:27.381Z,20.40
2023-05-22T19:25:50.041Z,20.40
2023-05-22T19:27:25.360Z,20.40
2023-05-22T19:28:59.274Z,20.30
2023-05-22T19:30:35.153Z,20.30
2023-05-22T19:32:09.834Z,20.30
2023-05-22T19:33:41.798Z,20.20
2023-05-22T19:35:15.681Z,20.20
2023-05-22T19:36:55.335Z,20.20
2023-05-22T19:38:27.459Z,20.10
2023-05-22T19:39:59.312Z,20.10
2023-05-22T19:41:31.293Z,20.10
2023-05-22T19:43:03.241Z,20.10
2023-05-22T19:44:35.101Z,20.10
2023-05-22T19:46:08.851Z,20.00
2023-05-22T19:47:41.367Z,20.00
2023-05-22T19:49:13.933Z,20.00
2023-05-22T19:50:48.848Z,19.90
2023-05-22T19:52:32.891Z,19.90
2023-05-22T19:54:10.792Z,19.90
2023-05-22T19:55:42.643Z,19.90
2023-05-22T19:57:22.157Z,19.80
2023-05-22T19:58:53.876Z,19.80
2023-05-22T20:00:29.274Z,19.80
2023-05-22T20:02:01.048Z,19.80
2023-05-22T20:03:32.934Z,19.70
2023-05-22T20:05:05.107Z,19.70
2023-05-22T20:06:36.935Z,19.70
2023-05-22T20:08:10.127Z,19.60
2023-05-22T20:09:41.923Z,19.60
2023-05-22T20:11:13.678Z,19.60
2023-05-22T20:12:45.856Z,19.60